createdAt,value
2023-01-18T00:00:40.392Z,9.50
2023-01-18T00:03:11.260Z,6.28
2023-01-18T00:05:41.078Z,4.75
2023-01-18T00:08:12.932Z,7.57
2023-01-18T00:13:07.978Z,6.65
2023-01-18T00:15:38.050Z,6.10
2023-01-18T00:18:05.126Z,9.60
2023-01-18T00:20:32.164Z,10.55
2023-01-18T00:23:02.511Z,7.38
2023-01-18T00:25:30.370Z,11.13
2023-01-18T00:27:57.376Z,7.10
2023-01-18T00:30:28.200Z,7.07
2023-01-18T00:32:59.232Z,7.10
2023-01-18T00:35:26.714Z,9.45
2023-01-18T00:37:54.195Z,6.15
2023-01-18T00:40:22.939Z,6.60
2023-01-18T00:43:08.133Z,8.45
2023-01-18T00:45:34.748Z,10.48
2023-01-18T00:48:02.636Z,13.13
2023-01-18T00:50:29.542Z,7.20
2023-01-18T00:52:58.792Z,5.65
2023-01-18T00:55:26.481Z,11.52
2023-01-18T00:57:53.089Z,10.43
2023-01-18T01:00:20.401Z,10.25
2023-01-18T01:02:47.022Z,9.57
2023-01-18T01:05:41.035Z,9.10
2023-01-18T01:08:07.803Z,6.57
2023-01-18T01:10:35.172Z,8.02
2023-01-18T01:13:20.282Z,8.00
2023-01-18T01:16:05.764Z,11.07
2023-01-18T01:18:50.528Z,8.73
2023-01-18T01:21:35.542Z,9.07
2023-01-18T01:24:20.998Z,8.75
2023-01-18T01:26:47.549Z,9.05
2023-01-18T01:29:14.167Z,7.82
2023-01-18T01:31:40.902Z,6.78
2023-01-18T01:34:07.545Z,9.25
2023-01-18T01:36:34.387Z,7.55
2023-01-18T01:39:01.176Z,7.63
2023-01-18T01:41:31.226Z,12.43
2023-01-18T01:44:24.490Z,6.38
2023-01-18T01:47:04.245Z,7.80
2023-01-18T01:49:40.101Z,8.82
2023-01-18T01:52:15.409Z,8.30
2023-01-18T01:54:53.574Z,9.98
2023-01-18T01:57:24.233Z,6.25
2023-01-18T01:59:59.891Z,6.22
2023-01-18T02:02:27.586Z,7.50
2023-01-18T02:04:55.538Z,6.20
2023-01-18T02:07:23.987Z,5.47
2023-01-18T02:09:52.500Z,6.90
2023-01-18T02:12:19.738Z,6.75
2023-01-18T02:14:46.615Z,7.55
2023-01-18T02:17:16.252Z,7.32
2023-01-18T02:20:07.799Z,6.47
2023-01-18T02:22:59.677Z,6.15
2023-01-18T02:25:41.644Z,6.38
2023-01-18T02:28:17.175Z,11.45
2023-01-18T02:30:51.939Z,5.63
2023-01-18T02:33:36.507Z,6.72
2023-01-18T02:36:05.189Z,6.82
2023-01-18T02:38:41.407Z,5.00
2023-01-18T02:41:52.954Z,4.80
2023-01-18T02:44:47.384Z,6.47
2023-01-18T02:47:14.550Z,10.48
2023-01-18T02:49:42.032Z,8.02
2023-01-18T02:52:39.835Z,6.32
2023-01-18T02:55:13.820Z,7.03
2023-01-18T02:57:40.640Z,6.70
2023-01-18T03:00:10.353Z,5.00
2023-01-18T03:02:38.982Z,5.32
2023-01-18T03:05:10.585Z,5.95
2023-01-18T03:07:53.411Z,4.40
2023-01-18T03:10:21.318Z,5.88
2023-01-18T03:12:47.848Z,5.55
2023-01-18T03:15:20.410Z,6.82
2023-01-18T03:17:57.377Z,8.52
2023-01-18T03:20:29.035Z,6.88
2023-01-18T03:23:34.067Z,5.90
2023-01-18T03:26:03.555Z,8.55
2023-01-18T03:29:00.436Z,5.45
2023-01-18T03:32:10.659Z,6.63
2023-01-18T03:34:53.822Z,6.20
2023-01-18T03:37:29.814Z,9.70
2023-01-18T03:40:06.984Z,5.35
2023-01-18T03:43:14.258Z,9.02
2023-01-18T03:45:45.937Z,4.15
2023-01-18T03:48:13.317Z,5.15
2023-01-18T03:50:51.855Z,4.95
2023-01-18T03:53:41.568Z,7.97
2023-01-18T03:56:20.596Z,4.70
2023-01-18T03:58:51.377Z,4.57
2023-01-18T04:01:18.362Z,4.45
2023-01-18T04:03:45.026Z,3.83
2023-01-18T04:06:11.749Z,7.18
2023-01-18T04:08:38.377Z,5.15
2023-01-18T04:11:05.031Z,6.75
2023-01-18T04:13:31.584Z,5.90
2023-01-18T04:15:58.207Z,7.72
2023-01-18T04:18:25.954Z,5.90
2023-01-18T04:20:56.408Z,7.32
2023-01-18T04:23:24.109Z,7.65
2023-01-18T04:25:51.754Z,5.95
2023-01-18T04:28:25.439Z,8.40
2023-01-18T04:30:57.024Z,9.57
2023-01-18T04:33:26.835Z,5.32
2023-01-18T04:35:56.532Z,7.18
2023-01-18T04:38:23.588Z,5.13
2023-01-18T04:40:50.849Z,7.50
2023-01-18T04:43:18.021Z,9.18
2023-01-18T04:45:56.561Z,8.05
2023-01-18T04:48:23.765Z,6.18
2023-01-18T04:50:50.669Z,5.95
2023-01-18T04:53:18.156Z,7.07
2023-01-18T04:55:45.933Z,7.18
2023-01-18T04:58:12.688Z,7.68
2023-01-18T05:00:42.296Z,7.22
2023-01-18T05:03:11.016Z,10.85
2023-01-18T05:05:37.770Z,8.95
2023-01-18T05:08:04.564Z,6.25
2023-01-18T05:10:33.608Z,7.97
2023-01-18T05:13:00.789Z,7.43
2023-01-18T05:15:27.705Z,13.02
2023-01-18T05:17:54.254Z,9.27
2023-01-18T05:20:20.846Z,9.85
2023-01-18T05:22:47.414Z,9.93
2023-01-18T05:25:14.023Z,13.27
2023-01-18T05:27:40.659Z,11.02
2023-01-18T05:30:08.798Z,8.55
2023-01-18T05:32:35.604Z,8.25
2023-01-18T05:35:03.733Z,9.00
2023-01-18T05:37:30.363Z,9.57
2023-01-18T05:39:57.400Z,8.95
2023-01-18T05:42:24.025Z,10.25
2023-01-18T05:44:50.584Z,17.00
2023-01-18T05:47:17.159Z,11.60
2023-01-18T05:49:43.694Z,12.02
2023-01-18T05:52:10.373Z,13.65
2023-01-18T05:54:36.970Z,7.47
2023-01-18T05:57:03.819Z,7.78
2023-01-18T05:59:30.410Z,12.65
2023-01-18T06:01:57.037Z,7.00
2023-01-18T06:04:23.678Z,16.48
2023-01-18T06:06:50.264Z,8.38
2023-01-18T06:09:17.427Z,11.25
2023-01-18T06:11:44.014Z,14.90
2023-01-18T06:14:10.574Z,9.98
2023-01-18T06:16:37.174Z,11.88
2023-01-18T06:19:03.732Z,12.18
2023-01-18T06:21:30.321Z,14.85
2023-01-18T06:23:56.893Z,16.55
2023-01-18T06:26:23.944Z,13.43
2023-01-18T06:28:50.534Z,12.40
2023-01-18T06:31:17.201Z,14.30
2023-01-18T06:33:43.796Z,16.17
2023-01-18T06:36:10.340Z,15.13
2023-01-18T06:38:36.975Z,15.43
2023-01-18T06:41:03.577Z,27.15
2023-01-18T06:43:30.215Z,20.02
2023-01-18T06:45:57.702Z,24.05
2023-01-18T06:48:25.174Z,16.42
2023-01-18T06:50:52.704Z,13.00
2023-01-18T06:53:22.669Z,16.75
2023-01-18T06:55:57.085Z,15.48
2023-01-18T06:58:25.831Z,13.60
2023-01-18T07:01:00.557Z,12.50
2023-01-18T07:03:28.892Z,15.60
2023-01-18T07:06:00.359Z,22.92
2023-01-18T07:08:28.464Z,15.63
2023-01-18T07:10:55.239Z,17.58
2023-01-18T07:13:22.139Z,15.68
2023-01-18T07:15:58.011Z,14.60
2023-01-18T07:18:26.443Z,16.27
2023-01-18T07:21:00.415Z,14.38
2023-01-18T07:23:27.658Z,13.80
2023-01-18T07:26:05.487Z,18.88
2023-01-18T07:28:32.872Z,14.52
2023-01-18T07:31:00.427Z,11.35
2023-01-18T07:33:28.183Z,13.40
2023-01-18T07:35:57.247Z,19.67
2023-01-18T07:38:24.818Z,14.98
2023-01-18T07:40:51.507Z,11.63
2023-01-18T07:43:18.321Z,12.73
2023-01-18T07:45:52.289Z,14.82
2023-01-18T07:48:18.894Z,23.33
2023-01-18T07:50:59.248Z,19.95
2023-01-18T07:53:26.965Z,15.27
2023-01-18T07:55:54.341Z,12.23
2023-01-18T07:58:21.472Z,17.23
2023-01-18T08:00:48.050Z,13.23
2023-01-18T08:03:16.678Z,19.92
2023-01-18T08:05:44.220Z,15.75
2023-01-18T08:08:12.930Z,16.98
2023-01-18T08:10:40.007Z,17.98
2023-01-18T08:13:10.181Z,20.23
2023-01-18T08:15:38.153Z,21.15
2023-01-18T08:18:06.366Z,17.02
2023-01-18T08:20:33.135Z,19.52
2023-01-18T08:23:01.371Z,18.40
2023-01-18T08:25:29.903Z,20.00
2023-01-18T08:27:59.197Z,17.20
2023-01-18T08:30:31.349Z,21.95
2023-01-18T08:33:00.376Z,17.77
2023-01-18T08:35:29.278Z,16.20
2023-01-18T08:37:56.339Z,20.30
2023-01-18T08:40:26.324Z,21.77
2023-01-18T08:42:58.072Z,17.63
2023-01-18T08:48:03.520Z,19.20
2023-01-18T08:50:31.190Z,18.88
2023-01-18T08:53:00.166Z,17.67
2023-01-18T08:55:27.748Z,17.92
2023-01-18T08:57:54.956Z,19.73
2023-01-18T09:00:26.937Z,17.08
2023-01-18T09:02:53.734Z,19.55
2023-01-18T09:05:20.422Z,21.10
2023-01-18T09:07:47.569Z,18.25
2023-01-18T09:10:14.368Z,17.98
2023-01-18T09:12:41.214Z,16.35
2023-01-18T09:15:08.751Z,18.10
2023-01-18T09:17:35.318Z,16.50
2023-01-18T09:20:02.004Z,20.25
2023-01-18T09:22:28.583Z,22.77
2023-01-18T09:24:55.107Z,22.88
2023-01-18T09:27:21.718Z,17.42
2023-01-18T09:29:52.194Z,19.77
2023-01-18T09:32:22.046Z,20.65
2023-01-18T09:34:50.714Z,23.38
2023-01-18T09:37:19.076Z,22.08
2023-01-18T09:39:51.855Z,23.05
2023-01-18T09:42:24.936Z,19.45
2023-01-18T09:44:55.427Z,19.65
2023-01-18T09:47:27.356Z,20.30
2023-01-18T09:52:43.997Z,25.17
2023-01-18T09:55:19.652Z,18.65
2023-01-18T09:57:58.470Z,28.70
2023-01-18T10:00:28.798Z,16.05
2023-01-18T10:03:01.267Z,14.52
2023-01-18T10:05:33.334Z,16.05
2023-01-18T10:10:44.134Z,13.68
2023-01-18T10:13:47.207Z,21.20
2023-01-18T10:16:15.317Z,16.15
2023-01-18T10:18:48.210Z,16.58
2023-01-18T10:21:44.194Z,18.02
2023-01-18T10:24:32.252Z,16.85
2023-01-18T10:27:24.120Z,20.35
2023-01-18T10:30:15.103Z,18.83
2023-01-18T10:32:52.227Z,22.40
2023-01-18T10:35:31.343Z,17.67
2023-01-18T10:38:03.345Z,16.33
2023-01-18T10:43:04.062Z,18.17
2023-01-18T10:45:33.730Z,17.08
2023-01-18T10:48:20.477Z,14.85
2023-01-18T10:50:52.331Z,21.67
2023-01-18T10:53:33.319Z,14.45
2023-01-18T10:56:07.341Z,18.65
2023-01-18T10:58:45.755Z,20.00
2023-01-18T11:01:22.542Z,20.55
2023-01-18T11:03:53.040Z,17.67
2023-01-18T11:06:20.997Z,16.27
2023-01-18T11:08:49.779Z,16.83
2023-01-18T11:11:19.077Z,21.20
2023-01-18T11:13:48.460Z,15.63
2023-01-18T11:16:23.172Z,10.95
2023-01-18T11:19:04.459Z,16.33
2023-01-18T11:21:42.688Z,11.33
2023-01-18T11:24:16.102Z,11.75
2023-01-18T11:27:23.332Z,12.15
2023-01-18T11:29:50.600Z,18.48
2023-01-18T11:32:26.993Z,9.93
2023-01-18T11:34:56.141Z,16.27
2023-01-18T11:37:35.567Z,17.58
2023-01-18T11:40:20.654Z,10.98
2023-01-18T11:42:50.594Z,11.48
2023-01-18T11:45:46.192Z,10.80
2023-01-18T11:48:30.707Z,12.38
2023-01-18T11:50:58.638Z,8.38
2023-01-18T11:54:02.802Z,10.43
2023-01-18T11:56:47.710Z,5.28
2023-01-18T11:59:31.114Z,10.10
2023-01-18T12:02:35.386Z,6.20
2023-01-18T12:05:07.794Z,5.78
2023-01-18T12:07:53.955Z,6.80
2023-01-18T12:10:34.096Z,5.32
2023-01-18T12:13:21.003Z,7.03
2023-01-18T12:16:03.056Z,8.70
2023-01-18T12:21:21.219Z,7.85
2023-01-18T12:24:07.064Z,7.43
2023-01-18T12:26:47.334Z,5.22
2023-01-18T12:29:36.529Z,4.40
2023-01-18T12:32:12.268Z,6.82
2023-01-18T12:34:47.017Z,7.28
2023-01-18T12:37:26.006Z,6.38
2023-01-18T12:40:11.066Z,5.95
2023-01-18T12:43:04.067Z,9.55
2023-01-18T12:45:39.092Z,8.45
2023-01-18T12:48:09.017Z,8.57
2023-01-18T12:50:38.523Z,5.95
2023-01-18T12:53:16.280Z,6.50
2023-01-18T12:55:46.819Z,7.75
2023-01-18T12:58:19.135Z,8.98
2023-01-18T13:00:52.149Z,9.30
2023-01-18T13:03:25.152Z,9.20
2023-01-18T13:06:00.093Z,7.22
2023-01-18T13:08:52.322Z,8.60
2023-01-18T13:14:07.168Z,7.95
2023-01-18T13:16:52.422Z,10.25
2023-01-18T13:19:24.808Z,7.40
2023-01-18T13:22:06.613Z,5.00
2023-01-18T13:24:39.849Z,9.98
2023-01-18T13:27:08.952Z,8.43
2023-01-18T13:29:35.984Z,8.55
2023-01-18T13:32:03.182Z,7.28
2023-01-18T13:34:34.673Z,8.43
2023-01-18T13:37:14.586Z,6.03
2023-01-18T13:39:47.815Z,5.28
2023-01-18T13:42:14.320Z,8.57
2023-01-18T13:44:44.431Z,9.15
2023-01-18T13:47:46.752Z,6.93
2023-01-18T13:50:28.607Z,6.53
2023-01-18T13:53:25.291Z,6.45
2023-01-18T13:55:54.597Z,8.68
2023-01-18T13:58:28.343Z,12.13
2023-01-18T14:00:58.574Z,8.23
2023-01-18T14:03:28.606Z,8.10
2023-01-18T14:05:57.401Z,6.78
2023-01-18T14:08:29.181Z,9.52
2023-01-18T14:11:10.109Z,8.00
2023-01-18T14:13:45.785Z,7.13
2023-01-18T14:16:16.657Z,8.50
2023-01-18T14:18:51.557Z,7.25
2023-01-18T14:21:24.535Z,8.70
2023-01-18T14:24:08.673Z,6.30
2023-01-18T14:26:37.954Z,5.65
2023-01-18T14:29:12.147Z,7.47
2023-01-18T14:31:43.011Z,5.90
2023-01-18T14:34:30.918Z,9.55
2023-01-18T14:36:58.130Z,7.15
2023-01-18T14:39:25.370Z,7.75
2023-01-18T14:41:56.496Z,6.70
2023-01-18T14:44:26.747Z,5.30
2023-01-18T14:46:58.217Z,6.25
2023-01-18T14:49:38.741Z,6.80
2023-01-18T14:52:08.687Z,9.05
2023-01-18T14:54:35.523Z,8.68
2023-01-18T14:57:04.219Z,7.80
2023-01-18T14:59:32.137Z,4.65
2023-01-18T15:02:01.998Z,4.55
2023-01-18T15:04:31.198Z,4.30
2023-01-18T15:07:03.751Z,7.82
2023-01-18T15:09:36.903Z,5.78
2023-01-18T15:12:07.715Z,5.32
2023-01-18T15:14:43.118Z,10.60
2023-01-18T15:17:21.369Z,4.55
2023-01-18T15:19:54.541Z,3.72
2023-01-18T15:22:27.224Z,7.05
2023-01-18T15:24:57.520Z,3.30
2023-01-18T15:27:24.078Z,5.32
2023-01-18T15:29:53.867Z,5.10
2023-01-18T15:32:27.079Z,7.40
2023-01-18T15:34:55.710Z,5.25
2023-01-18T15:37:29.483Z,4.20
2023-01-18T15:40:03.664Z,3.75
2023-01-18T15:42:38.718Z,5.38
2023-01-18T15:45:16.911Z,4.72
2023-01-18T15:47:48.756Z,4.28
2023-01-18T15:50:24.463Z,4.47
2023-01-18T15:53:06.108Z,4.82
2023-01-18T15:55:35.109Z,3.63
2023-01-18T15:58:11.665Z,7.00
2023-01-18T16:00:53.227Z,7.22
2023-01-18T16:03:30.433Z,8.85
2023-01-18T16:06:07.872Z,5.13
2023-01-18T16:08:35.184Z,5.40
2023-01-18T16:11:01.847Z,7.93
2023-01-18T16:13:37.770Z,4.45
2023-01-18T16:16:16.171Z,4.30
2023-01-18T16:18:46.511Z,3.53
2023-01-18T16:21:21.000Z,3.38
2023-01-18T16:23:49.820Z,9.43
2023-01-18T16:26:24.277Z,6.43
2023-01-18T16:28:51.839Z,8.30
2023-01-18T16:31:20.939Z,7.95
2023-01-18T16:33:47.622Z,6.38
2023-01-18T16:36:17.996Z,7.18
2023-01-18T16:38:45.041Z,6.53
2023-01-18T16:41:12.928Z,7.72
2023-01-18T16:43:39.498Z,8.48
2023-01-18T16:46:06.362Z,10.20
2023-01-18T16:48:34.156Z,12.82
2023-01-18T16:51:01.421Z,10.95
2023-01-18T16:53:29.018Z,12.45
2023-01-18T16:55:56.753Z,9.82
2023-01-18T16:58:24.087Z,14.18
2023-01-18T17:01:11.395Z,7.93
2023-01-18T17:03:39.560Z,11.02
2023-01-18T17:06:06.881Z,14.43
2023-01-18T17:08:33.658Z,13.18
2023-01-18T17:11:00.223Z,11.30
2023-01-18T17:13:27.087Z,13.30
2023-01-18T17:15:53.703Z,13.55
2023-01-18T17:18:25.612Z,11.50
2023-01-18T17:23:19.601Z,13.38
2023-01-18T17:25:46.501Z,14.95
2023-01-18T17:28:15.610Z,15.68
2023-01-18T17:30:44.122Z,14.85
2023-01-18T17:33:21.166Z,11.82
2023-01-18T17:35:49.197Z,17.58
2023-01-18T17:38:23.337Z,14.38
2023-01-18T17:40:51.168Z,14.93
2023-01-18T17:43:28.381Z,14.73
2023-01-18T17:46:01.976Z,12.93
2023-01-18T17:48:28.965Z,19.20
2023-01-18T17:50:55.543Z,15.05
2023-01-18T17:53:22.097Z,13.27
2023-01-18T17:55:48.660Z,12.63
2023-01-18T17:58:15.359Z,20.55
2023-01-18T18:00:42.077Z,15.77
2023-01-18T18:03:09.228Z,17.42
2023-01-18T18:05:36.111Z,16.30
2023-01-18T18:08:02.792Z,17.38
2023-01-18T18:10:29.394Z,18.08
2023-01-18T18:12:55.992Z,20.40
2023-01-18T18:15:23.504Z,21.20
2023-01-18T18:17:50.097Z,20.20
2023-01-18T18:20:17.242Z,18.80
2023-01-18T18:22:43.965Z,14.25
2023-01-18T18:25:10.709Z,20.00
2023-01-18T18:27:45.205Z,18.38
2023-01-18T18:30:13.080Z,15.50
2023-01-18T18:32:39.775Z,17.42
2023-01-18T18:35:19.455Z,15.05
2023-01-18T18:37:51.035Z,14.25
2023-01-18T18:40:17.844Z,16.33
2023-01-18T18:42:49.957Z,14.63
2023-01-18T18:45:27.152Z,16.48
2023-01-18T18:47:53.827Z,13.90
2023-01-18T18:50:20.512Z,13.52
2023-01-18T18:52:47.262Z,14.43
2023-01-18T18:55:14.045Z,18.27
2023-01-18T18:57:40.702Z,15.82
2023-01-18T19:00:08.123Z,13.77
2023-01-18T19:02:35.350Z,12.30
2023-01-18T19:05:02.245Z,12.63
2023-01-18T19:07:29.151Z,14.70
2023-01-18T19:09:55.796Z,14.38
2023-01-18T19:12:22.526Z,14.93
2023-01-18T19:14:49.347Z,14.30
2023-01-18T19:17:28.940Z,16.45
2023-01-18T19:19:56.751Z,17.75
2023-01-18T19:22:23.524Z,17.38
2023-01-18T19:24:50.083Z,14.18
2023-01-18T19:27:16.839Z,13.10
2023-01-18T19:29:43.999Z,13.65
2023-01-18T19:32:10.640Z,18.35
2023-01-18T19:34:41.178Z,16.60
2023-01-18T19:37:08.263Z,18.15
2023-01-18T19:39:35.023Z,17.20
2023-01-18T19:42:02.422Z,20.38
2023-01-18T19:44:30.735Z,15.73
2023-01-18T19:46:57.448Z,18.05
2023-01-18T19:49:27.337Z,15.15
2023-01-18T19:51:54.787Z,16.08
2023-01-18T19:54:21.961Z,12.40
2023-01-18T19:56:48.742Z,18.13
2023-01-18T19:59:15.417Z,19.23
2023-01-18T20:01:42.325Z,21.63
2023-01-18T20:04:09.674Z,20.83
2023-01-18T20:06:39.933Z,18.00
2023-01-18T20:09:15.796Z,23.20
2023-01-18T20:11:44.812Z,20.17
2023-01-18T20:14:11.917Z,19.02
2023-01-18T20:16:39.142Z,19.52
2023-01-18T20:19:05.761Z,24.00
2023-01-18T20:21:32.333Z,18.58
2023-01-18T20:23:59.007Z,19.38
2023-01-18T20:26:35.861Z,20.70
2023-01-18T20:29:07.076Z,21.80
2023-01-18T20:31:35.972Z,20.42
2023-01-18T20:34:03.191Z,21.27
2023-01-18T20:36:29.904Z,16.42
2023-01-18T20:38:57.238Z,26.48
2023-01-18T20:41:23.807Z,23.88
2023-01-18T20:43:50.393Z,27.23
2023-01-18T20:46:17.051Z,23.60
2023-01-18T20:48:44.014Z,26.98
2023-01-18T20:51:10.622Z,25.75
2023-01-18T20:53:39.922Z,27.98
2023-01-18T20:56:27.199Z,21.02
2023-01-18T20:58:55.398Z,24.38
2023-01-18T21:01:22.118Z,24.58
2023-01-18T21:03:55.516Z,23.58
2023-01-18T21:06:22.112Z,23.73
2023-01-18T21:08:52.532Z,30.73
2023-01-18T21:11:22.886Z,24.00
2023-01-18T21:13:50.264Z,24.73
2023-01-18T21:16:16.993Z,24.98
2023-01-18T21:18:43.937Z,22.92
2023-01-18T21:21:10.557Z,22.33
2023-01-18T21:23:39.905Z,19.52
2023-01-18T21:26:11.291Z,22.77
2023-01-18T21:28:38.193Z,21.10
2023-01-18T21:31:05.505Z,27.35
2023-01-18T21:33:33.216Z,25.25
2023-01-18T21:36:07.713Z,18.63
2023-01-18T21:38:34.807Z,21.13
2023-01-18T21:41:21.430Z,21.35
2023-01-18T21:44:06.548Z,20.60
2023-01-18T21:46:33.145Z,20.95
2023-01-18T21:49:06.838Z,17.45
2023-01-18T21:51:52.938Z,22.73
2023-01-18T21:54:21.469Z,22.55
2023-01-18T21:56:48.008Z,16.55
2023-01-18T21:59:14.914Z,21.63
2023-01-18T22:01:44.394Z,19.10
2023-01-18T22:04:33.939Z,16.23
2023-01-18T22:07:01.494Z,19.27
2023-01-18T22:09:29.796Z,12.50
2023-01-18T22:11:57.467Z,19.60
2023-01-18T22:14:25.193Z,19.15
2023-01-18T22:16:51.896Z,18.83
2023-01-18T22:19:21.311Z,19.80
2023-01-18T22:21:49.410Z,17.00
2023-01-18T22:24:17.275Z,16.75
2023-01-18T22:26:45.244Z,18.90
2023-01-18T22:29:12.424Z,16.35
2023-01-18T22:31:39.526Z,16.77
2023-01-18T22:34:07.483Z,14.55
2023-01-18T22:36:34.445Z,19.30
2023-01-18T22:39:01.214Z,21.77
2023-01-18T22:41:28.963Z,18.98
2023-01-18T22:43:56.083Z,20.60
2023-01-18T22:46:24.057Z,17.45
2023-01-18T22:48:51.245Z,15.45
2023-01-18T22:51:22.222Z,15.73
2023-01-18T22:53:49.575Z,14.87
2023-01-18T22:56:21.605Z,15.55
2023-01-18T22:58:49.091Z,13.90
2023-01-18T23:01:25.210Z,13.40
2023-01-18T23:03:54.832Z,19.27
2023-01-18T23:06:22.141Z,13.57
2023-01-18T23:08:49.490Z,16.98
2023-01-18T23:11:25.163Z,14.02
2023-01-18T23:14:14.992Z,19.90
2023-01-18T23:17:00.890Z,16.02
2023-01-18T23:19:29.630Z,18.52
2023-01-18T23:21:57.329Z,22.65
2023-01-18T23:24:24.065Z,21.40
2023-01-18T23:26:51.314Z,17.13
2023-01-18T23:29:18.379Z,17.65
2023-01-18T23:31:45.066Z,15.82
2023-01-18T23:34:11.681Z,20.58
2023-01-18T23:36:38.359Z,21.00
2023-01-18T23:39:23.457Z,14.93
2023-01-18T23:42:08.470Z,16.70
2023-01-18T23:44:53.868Z,20.00
2023-01-18T23:47:39.123Z,22.17
2023-01-18T23:50:24.563Z,19.30
2023-01-18T23:53:09.808Z,17.65
2023-01-18T23:55:36.383Z,19.25
2023-01-18T23:58:03.251Z,16.75
